Time;durP1;ratioP1;P1;durP2;ratioP2;P2;SDS_P1;SDS_P2;PMS_P1;PMS_P2;Temp;Humidity;BMP_temperature;BMP_pressure;BME280_temperature;BME280_humidity;BME280_pressure;Samples;Min_cycle;Max_cycle;Signal;HPM_P1;HPM_P2
2023/09/15 00:01:09;;;;;;;10.00;6.20;;;;;;;27.36;36.37;100697.86;102754;1296;61409;-82
2023/09/15 00:03:35;;;;;;;12.60;5.90;;;;;;;27.36;36.43;100695.90;102937;1297;61406;-83
2023/09/15 00:06:01;;;;;;;12.60;6.20;;;;;;;27.36;36.54;100695.86;102760;1299;61740;-82
2023/09/15 00:08:28;;;;;;;12.50;6.50;;;;;;;27.36;36.59;100699.36;102789;1297;61387;-82
2023/09/15 00:10:53;;;;;;;13.00;5.90;;;;;;;27.36;36.53;100704.56;102720;1301;61269;-82
2023/09/15 00:13:19;;;;;;;11.00;5.80;;;;;;;27.36;36.43;100705.42;102806;1297;61423;-82
2023/09/15 00:15:49;;;;;;;11.70;6.10;;;;;;;27.37;36.53;100706.11;102761;1297;61318;-82
2023/09/15 00:18:26;;;;;;;9.80;6.10;;;;;;;27.36;36.49;100708.56;102603;1297;65920;-82
2023/09/15 00:20:51;;;;;;;9.00;5.70;;;;;;;27.36;36.49;100708.33;102684;1300;61498;-82
2023/09/15 00:23:17;;;;;;;11.80;6.00;;;;;;;27.36;36.48;100712.30;102708;1298;61469;-82
2023/09/15 00:25:45;;;;;;;11.80;5.70;;;;;;;27.36;36.56;100712.48;102738;1301;61494;-82
2023/09/15 00:28:13;;;;;;;10.60;6.10;;;;;;;27.36;36.64;100716.29;102756;1296;65706;-82
2023/09/15 00:30:39;;;;;;;12.50;6.30;;;;;;;27.36;36.65;100716.33;102679;1296;61404;-82
2023/09/15 00:33:04;;;;;;;12.00;5.80;;;;;;;27.36;36.55;100715.77;102742;1297;61432;-82
2023/09/15 00:35:30;;;;;;;10.50;6.00;;;;;;;27.36;36.67;100716.14;102784;1300;61316;-82
2023/09/15 00:38:03;;;;;;;8.70;5.60;;;;;;;27.36;36.71;100721.19;102653;1297;65953;-83
2023/09/15 00:40:28;;;;;;;10.10;6.20;;;;;;;27.35;36.62;100721.44;102684;1298;61317;-83
2023/09/15 00:42:54;;;;;;;11.10;6.10;;;;;;;27.35;36.63;100719.80;102685;1297;61800;-83
2023/09/15 00:45:20;;;;;;;10.50;5.90;;;;;;;27.36;36.57;100725.00;102694;1297;61490;-83
2023/09/15 00:47:47;;;;;;;13.60;5.90;;;;;;;27.36;36.64;100726.83;102773;1297;61392;-83
2023/09/15 00:50:14;;;;;;;9.70;6.50;;;;;;;27.35;36.52;100726.50;102663;1301;61431;-83
2023/09/15 00:52:41;;;;;;;10.40;6.70;;;;;;;27.35;36.71;100728.33;102742;1295;62166;-83
2023/09/15 00:55:08;;;;;;;9.60;6.10;;;;;;;27.35;36.74;100725.24;102691;1297;61529;-83
2023/09/15 00:57:37;;;;;;;12.00;6.40;;;;;;;27.35;36.89;100730.46;102833;1298;65784;-83
2023/09/15 01:00:11;;;;;;;11.60;6.50;;;;;;;27.35;36.91;100732.45;102750;1295;61393;-83
2023/09/15 01:02:48;;;;;;;11.60;6.40;;;;;;;27.35;36.94;100735.18;102739;1295;61373;-83
2023/09/15 01:05:21;;;;;;;15.60;6.80;;;;;;;27.35;36.83;100733.95;102732;1297;63892;-83
2023/09/15 01:07:47;;;;;;;11.90;6.90;;;;;;;27.35;36.76;100734.86;102790;1297;65852;-83
2023/09/15 01:10:14;;;;;;;12.90;6.80;;;;;;;27.35;36.83;100734.83;102872;1298;61309;-83
2023/09/15 01:12:42;;;;;;;11.50;6.80;;;;;;;27.34;36.92;100735.41;102689;1297;61431;-83
2023/09/15 01:15:08;;;;;;;11.00;7.10;;;;;;;27.35;36.93;100739.53;102828;1297;64004;-83
2023/09/15 01:18:02;;;;;;;11.20;6.80;;;;;;;27.35;36.84;100741.34;102829;1296;61390;-82
2023/09/15 01:21:03;;;;;;;10.60;6.80;;;;;;;27.35;36.93;100747.50;102844;1296;61291;-83
2023/09/15 01:24:03;;;;;;;14.40;6.60;;;;;;;27.34;37.00;100749.25;102196;1302;61347;-83
2023/09/15 01:26:50;;;;;;;13.10;6.90;;;;;;;27.33;37.11;100754.88;102270;1305;63848;-83
2023/09/15 01:29:41;;;;;;;14.60;7.40;;;;;;;27.33;37.22;100754.67;102287;1303;65878;-83
2023/09/15 01:32:10;;;;;;;13.80;6.70;;;;;;;27.33;37.18;100761.75;102236;1305;61325;-83
2023/09/15 01:34:36;;;;;;;12.10;7.30;;;;;;;27.33;37.32;100768.23;102316;1304;61465;-83
2023/09/15 01:37:03;;;;;;;14.20;8.00;;;;;;;27.34;37.28;100776.50;102222;1302;71949;-83
2023/09/15 01:39:30;;;;;;;12.80;8.10;;;;;;;27.34;37.35;100779.55;102273;1308;61493;-83
2023/09/15 01:42:00;;;;;;;15.50;8.30;;;;;;;27.33;37.21;100786.29;102252;1303;61383;-83
2023/09/15 01:44:26;;;;;;;12.90;7.70;;;;;;;27.34;37.25;100797.13;102178;1303;61413;-83
2023/09/15 01:46:51;;;;;;;12.00;7.70;;;;;;;27.34;37.16;100808.65;102308;1309;61303;-83
2023/09/15 01:49:20;;;;;;;13.20;7.70;;;;;;;27.34;37.17;100814.05;102202;1305;61454;-83
2023/09/15 01:51:46;;;;;;;12.30;7.60;;;;;;;27.34;37.18;100820.03;102282;1303;61822;-83
2023/09/15 01:54:12;;;;;;;13.80;7.80;;;;;;;27.34;37.15;100822.77;102366;1303;61262;-83
2023/09/15 01:56:38;;;;;;;11.10;8.20;;;;;;;27.34;37.23;100822.20;102275;1303;61477;-83
2023/09/15 01:59:04;;;;;;;13.50;7.30;;;;;;;27.34;37.27;100822.17;102384;1300;61440;-83
2023/09/15 02:01:29;;;;;;;12.60;7.70;;;;;;;27.34;37.27;100814.98;102903;1296;61428;-83
2023/09/15 02:03:55;;;;;;;11.60;7.50;;;;;;;27.34;37.24;100812.08;102671;1298;61406;-83
2023/09/15 02:06:21;;;;;;;10.20;7.40;;;;;;;27.34;36.95;100813.52;102828;1297;62146;-83
2023/09/15 02:08:46;;;;;;;15.20;8.80;;;;;;;27.33;37.14;100813.60;102703;1297;63859;-83
2023/09/15 02:11:12;;;;;;;15.80;8.10;;;;;;;27.34;37.10;100819.31;102758;1297;61533;-83
2023/09/15 02:13:39;;;;;;;11.60;7.80;;;;;;;27.33;37.25;100816.46;102675;1297;61401;-83
2023/09/15 02:16:05;;;;;;;15.10;8.20;;;;;;;27.34;37.07;100818.06;102690;1296;61288;-83
2023/09/15 02:18:32;;;;;;;13.40;7.70;;;;;;;27.34;36.99;100810.14;102746;1296;61376;-83
2023/09/15 02:20:57;;;;;;;10.40;7.70;;;;;;;27.34;37.03;100810.81;102663;1297;61389;-83
2023/09/15 02:23:23;;;;;;;13.10;7.80;;;;;;;27.34;37.10;100808.83;102773;1298;61497;-83
2023/09/15 02:25:49;;;;;;;10.90;7.60;;;;;;;27.34;37.21;100807.42;102798;1297;62010;-82
2023/09/15 02:28:16;;;;;;;15.40;8.40;;;;;;;27.33;37.07;100810.52;102780;1296;61464;-83
2023/09/15 02:30:42;;;;;;;19.40;7.50;;;;;;;27.34;37.16;100817.19;102740;1297;62100;-83
2023/09/15 02:33:07;;;;;;;12.40;7.80;;;;;;;27.34;37.37;100817.48;102856;1298;61391;-83
2023/09/15 02:35:34;;;;;;;14.50;8.20;;;;;;;27.34;37.23;100814.80;102718;1300;61421;-83
2023/09/15 02:37:59;;;;;;;15.40;8.00;;;;;;;27.34;37.33;100812.23;102706;1299;61527;-83
2023/09/15 02:40:25;;;;;;;14.30;8.40;;;;;;;27.35;37.46;100810.92;102805;1299;61399;-83
2023/09/15 02:42:50;;;;;;;14.30;8.40;;;;;;;27.34;37.59;100808.45;102770;1297;61389;-83
2023/09/15 02:45:17;;;;;;;12.20;7.60;;;;;;;27.35;37.57;100804.79;102713;1297;61417;-83
2023/09/15 02:47:43;;;;;;;13.80;8.80;;;;;;;27.34;37.69;100804.28;102763;1298;61424;-83
2023/09/15 02:50:09;;;;;;;12.10;7.80;;;;;;;27.34;37.75;100803.38;102873;1296;62222;-83
2023/09/15 02:52:34;;;;;;;14.50;8.00;;;;;;;27.35;37.85;100802.60;102744;1297;61424;-83
2023/09/15 02:55:01;;;;;;;14.50;7.80;;;;;;;27.35;38.01;100807.30;102739;1300;65762;-83
2023/09/15 02:57:28;;;;;;;11.10;7.50;;;;;;;27.34;38.03;100806.64;102788;1296;61805;-83
2023/09/15 02:59:53;;;;;;;13.90;7.80;;;;;;;27.34;38.17;100805.90;102885;1297;61277;-83
2023/09/15 03:02:22;;;;;;;11.80;7.50;;;;;;;27.34;38.39;100803.39;102857;1297;61394;-82
2023/09/15 03:04:48;;;;;;;11.80;8.00;;;;;;;27.34;38.35;100803.77;101651;1300;1397610;-82
2023/09/15 03:07:13;;;;;;;12.30;7.70;;;;;;;27.34;38.55;100805.02;102714;1300;61501;-83
2023/09/15 03:09:39;;;;;;;11.60;7.80;;;;;;;27.33;38.50;100810.85;102716;1298;61425;-83
2023/09/15 03:12:05;;;;;;;14.40;7.70;;;;;;;27.33;38.47;100812.88;102645;1300;61855;-83
2023/09/15 03:14:31;;;;;;;11.60;7.70;;;;;;;27.34;38.59;100812.13;102712;1296;61331;-83
2023/09/15 03:16:57;;;;;;;14.10;8.10;;;;;;;27.33;38.51;100821.55;102687;1297;65732;-83
2023/09/15 03:19:24;;;;;;;11.80;7.60;;;;;;;27.33;38.63;100822.98;102709;1297;61413;-82
2023/09/15 03:21:49;;;;;;;11.40;7.80;;;;;;;27.33;38.83;100825.89;102730;1297;61479;-83
2023/09/15 03:24:16;;;;;;;10.70;7.40;;;;;;;27.33;38.77;100826.97;102704;1297;61416;-83
2023/09/15 03:26:43;;;;;;;11.60;7.60;;;;;;;27.33;38.98;100829.17;102671;1300;65817;-83
2023/09/15 03:29:09;;;;;;;12.50;7.90;;;;;;;27.33;38.72;100834.42;102716;1298;61501;-83
2023/09/15 03:31:34;;;;;;;10.90;7.40;;;;;;;27.32;38.70;100835.77;102773;1298;62054;-83
2023/09/15 03:34:00;;;;;;;11.20;7.30;;;;;;;27.33;38.98;100843.30;102705;1297;61510;-83
2023/09/15 03:36:26;;;;;;;11.90;7.40;;;;;;;27.33;38.99;100843.66;102654;1300;61404;-82
2023/09/15 03:38:52;;;;;;;12.50;7.20;;;;;;;27.33;38.88;100846.00;102733;1297;66859;-82
2023/09/15 03:41:17;;;;;;;9.90;7.80;;;;;;;27.32;38.90;100848.55;102634;1296;61325;-82
2023/09/15 03:43:43;;;;;;;13.10;7.40;;;;;;;27.33;39.08;100855.02;102593;1297;61429;-82
2023/09/15 03:46:09;;;;;;;13.90;7.60;;;;;;;27.33;39.09;100859.54;102681;1303;61482;-82
2023/09/15 03:48:34;;;;;;;12.70;8.30;;;;;;;27.33;38.97;100866.91;102738;1297;61480;-82
2023/09/15 03:51:00;;;;;;;10.20;7.30;;;;;;;27.33;38.99;100869.50;102656;1298;61398;-82
2023/09/15 03:53:26;;;;;;;12.50;7.80;;;;;;;27.33;38.89;100872.91;102605;1297;61473;-82
2023/09/15 03:55:52;;;;;;;10.90;7.00;;;;;;;27.33;39.06;100874.91;102732;1296;61346;-83
2023/09/15 03:58:17;;;;;;;14.00;7.50;;;;;;;27.33;38.99;100879.05;102626;1298;61471;-82
2023/09/15 04:00:43;;;;;;;10.20;7.10;;;;;;;27.32;38.84;100880.21;102763;1297;62224;-82
2023/09/15 04:03:09;;;;;;;14.60;7.30;;;;;;;27.32;38.98;100882.96;102839;1297;61403;-83
2023/09/15 04:05:35;;;;;;;14.40;7.30;;;;;;;27.31;39.17;100886.48;102718;1295;61401;-84
2023/09/15 04:08:01;;;;;;;14.60;7.80;;;;;;;27.31;38.85;100894.98;102939;1301;61393;-84
2023/09/15 04:10:27;;;;;;;12.60;8.00;;;;;;;27.30;39.24;100901.77;102756;1303;63786;-84
2023/09/15 04:12:53;;;;;;;10.90;6.70;;;;;;;27.30;39.07;100907.02;102765;1303;61379;-84
2023/09/15 04:15:18;;;;;;;12.90;7.30;;;;;;;27.29;39.03;100908.33;102872;1297;61477;-84
2023/09/15 04:17:44;;;;;;;10.80;6.80;;;;;;;27.28;39.20;100909.85;102849;1297;61433;-84
2023/09/15 04:20:10;;;;;;;9.90;7.30;;;;;;;27.29;39.06;100912.90;102928;1297;61417;-84
2023/09/15 04:22:40;;;;;;;13.50;7.30;;;;;;;27.28;39.16;100911.84;102933;1297;64000;-83
2023/09/15 04:25:06;;;;;;;10.70;6.80;;;;;;;27.27;39.22;100912.64;102860;1298;65937;-84
2023/09/15 04:27:32;;;;;;;13.10;7.30;;;;;;;27.27;39.38;100912.33;102887;1297;61494;-84
2023/09/15 04:29:58;;;;;;;11.50;7.30;;;;;;;27.26;39.18;100911.51;102940;1297;62365;-83
2023/09/15 04:32:24;;;;;;;11.30;6.40;;;;;;;27.25;39.28;100910.85;103003;1298;61408;-83
2023/09/15 04:34:50;;;;;;;9.70;6.70;;;;;;;27.25;39.12;100914.64;102841;1296;62383;-83
2023/09/15 04:37:15;;;;;;;12.50;7.50;;;;;;;27.25;39.19;100917.55;102898;1297;61493;-83
2023/09/15 04:39:41;;;;;;;11.20;7.20;;;;;;;27.24;39.17;100913.63;103286;1302;61403;-82
2023/09/15 04:42:07;;;;;;;14.80;7.60;;;;;;;27.24;39.35;100916.20;103354;1297;61340;-83
2023/09/15 04:44:32;;;;;;;11.00;7.10;;;;;;;27.24;39.38;100917.80;103597;1296;61372;-83
2023/09/15 04:47:00;;;;;;;13.00;7.50;;;;;;;27.23;39.50;100918.23;103355;1297;61333;-83
2023/09/15 04:49:25;;;;;;;15.10;7.90;;;;;;;27.23;39.37;100920.62;103598;1297;62955;-84
2023/09/15 04:51:51;;;;;;;18.10;8.00;;;;;;;27.22;39.49;100920.55;103868;1297;60037;-83
2023/09/15 04:54:16;;;;;;;14.40;8.40;;;;;;;27.21;39.69;100923.36;103839;1297;61317;-84
2023/09/15 04:56:42;;;;;;;19.80;8.80;;;;;;;27.19;39.90;100923.16;103945;1302;61510;-82
2023/09/15 04:59:15;;;;;;;21.30;8.40;;;;;;;27.17;40.04;100925.14;104119;1297;60680;-84
2023/09/15 05:01:44;;;;;;;22.80;9.30;;;;;;;27.15;40.15;100928.46;103917;1297;59367;-82
2023/09/15 05:04:10;;;;;;;20.20;9.00;;;;;;;27.13;39.99;100932.63;103687;1296;61219;-82
2023/09/15 05:06:36;;;;;;;16.70;9.10;;;;;;;27.11;40.37;100937.34;103808;1296;61495;-82
2023/09/15 05:09:06;;;;;;;23.00;8.90;;;;;;;27.07;40.46;100943.08;103901;1295;61280;-81
2023/09/15 05:11:33;;;;;;;22.40;8.70;;;;;;;27.08;40.44;100948.61;104223;1296;59998;-82
2023/09/15 05:13:58;;;;;;;17.50;8.90;;;;;;;27.11;40.43;100953.45;103807;1296;61304;-83
2023/09/15 05:16:24;;;;;;;17.90;9.80;;;;;;;27.12;40.71;100956.02;103715;1302;61399;-82
2023/09/15 05:18:50;;;;;;;19.00;10.20;;;;;;;27.12;40.56;100959.46;103886;1297;61299;-82
2023/09/15 05:21:15;;;;;;;15.10;9.10;;;;;;;27.10;40.43;100959.10;103846;1295;61481;-82
2023/09/15 05:23:41;;;;;;;14.80;9.50;;;;;;;27.08;40.64;100960.02;103771;1297;59357;-82
2023/09/15 05:26:07;;;;;;;24.00;10.30;;;;;;;27.07;40.82;100965.19;104084;1294;61550;-81
2023/09/15 05:28:33;;;;;;;18.30;9.40;;;;;;;27.02;40.87;100966.15;104125;1297;63589;-81
2023/09/15 05:30:59;;;;;;;18.50;9.60;;;;;;;26.97;40.89;100964.52;103854;1295;61252;-82
2023/09/15 05:33:29;;;;;;;18.60;9.40;;;;;;;26.91;40.88;100965.20;103881;1294;61274;-81
2023/09/15 05:35:58;;;;;;;22.30;9.10;;;;;;;26.84;40.94;100967.45;103897;1297;59482;-82
2023/09/15 05:38:24;;;;;;;14.40;8.50;;;;;;;26.75;41.05;100967.27;103616;1300;63811;-82
2023/09/15 05:40:50;;;;;;;17.80;8.30;;;;;;;26.69;40.86;100975.77;103581;1299;61464;-82
2023/09/15 05:43:19;;;;;;;19.30;8.50;;;;;;;26.66;40.92;100980.72;103569;1297;61316;-82
2023/09/15 05:45:45;;;;;;;20.50;9.10;;;;;;;26.63;40.96;100984.26;103485;1296;59504;-83
2023/09/15 05:48:12;;;;;;;18.70;7.70;;;;;;;26.60;41.04;100989.92;103650;1296;61322;-83
2023/09/15 05:50:39;;;;;;;17.50;8.30;;;;;;;26.53;41.06;100988.54;103878;1297;65657;-82
2023/09/15 05:53:05;;;;;;;23.70;8.00;;;;;;;26.48;40.99;100988.84;104299;1297;61311;-83
2023/09/15 05:55:31;;;;;;;20.50;7.30;;;;;;;26.42;41.02;100991.17;103973;1297;61393;-79
2023/09/15 05:57:56;;;;;;;17.80;7.60;;;;;;;26.38;41.15;100989.77;104241;1297;61243;-86
2023/09/15 06:00:22;;;;;;;14.40;7.20;;;;;;;26.37;41.08;100993.55;103988;1297;61428;-81
2023/09/15 06:02:48;;;;;;;18.10;7.60;;;;;;;26.38;41.08;100992.59;104133;1296;61303;-83
2023/09/15 06:05:14;;;;;;;21.50;7.20;;;;;;;26.38;40.95;100996.71;103800;1298;60109;-82
2023/09/15 06:07:39;;;;;;;21.00;7.10;;;;;;;26.36;40.88;101000.36;103835;1296;59864;-82
2023/09/15 06:10:08;;;;;;;14.30;6.70;;;;;;;26.35;41.07;101002.83;104023;1297;61385;-82
2023/09/15 06:12:33;;;;;;;17.50;6.70;;;;;;;26.30;40.96;101011.36;103949;1296;65777;-82
2023/09/15 06:14:59;;;;;;;14.10;6.80;;;;;;;26.21;40.92;101014.14;104035;1296;61296;-82
2023/09/15 06:17:25;;;;;;;15.00;6.30;;;;;;;26.20;41.05;101016.77;103759;1297;61328;-82
2023/09/15 06:19:51;;;;;;;14.80;6.30;;;;;;;26.20;40.89;101016.62;103735;1297;61386;-82
2023/09/15 06:22:17;;;;;;;15.30;6.70;;;;;;;26.22;40.78;101020.70;103916;1296;61320;-82
2023/09/15 06:24:42;;;;;;;19.50;6.70;;;;;;;26.19;40.83;101026.04;103817;1297;62842;-82
2023/09/15 06:27:08;;;;;;;13.20;6.50;;;;;;;26.16;40.90;101027.11;104085;1297;60509;-82
2023/09/15 06:29:33;;;;;;;17.30;6.40;;;;;;;26.15;40.72;101034.59;104060;1296;61396;-82
2023/09/15 06:31:59;;;;;;;15.60;6.90;;;;;;;26.14;40.92;101030.49;103981;1297;61338;-82
2023/09/15 06:34:25;;;;;;;22.20;6.60;;;;;;;26.06;40.74;101032.77;103663;1296;61998;-83
2023/09/15 06:36:50;;;;;;;21.10;6.10;;;;;;;26.00;40.62;101035.71;103728;1296;61265;-82
2023/09/15 06:39:16;;;;;;;14.00;6.00;;;;;;;25.94;40.96;101033.47;103931;1297;59411;-82
2023/09/15 06:41:42;;;;;;;21.20;6.20;;;;;;;25.88;40.84;101027.67;103938;1297;61802;-82
2023/09/15 06:44:09;;;;;;;11.70;5.40;;;;;;;25.79;40.82;101026.52;103737;1296;61385;-82
2023/09/15 06:46:35;;;;;;;17.80;5.60;;;;;;;25.70;40.89;101030.37;103921;1296;61382;-82
2023/09/15 06:49:00;;;;;;;19.20;5.70;;;;;;;25.69;40.87;101030.11;103929;1297;61412;-81
2023/09/15 06:51:27;;;;;;;14.90;5.20;;;;;;;25.69;40.93;101035.86;103941;1296;61752;-82
2023/09/15 06:53:55;;;;;;;13.10;5.70;;;;;;;25.75;40.97;101039.98;104022;1300;58984;-83
2023/09/15 06:56:21;;;;;;;15.60;5.50;;;;;;;25.83;40.89;101040.94;104095;1300;65999;-83
2023/09/15 06:58:47;;;;;;;13.10;5.90;;;;;;;25.88;40.78;101039.08;104174;1296;59297;-83
2023/09/15 07:01:13;;;;;;;21.80;5.80;;;;;;;25.91;40.89;101038.75;104250;1296;61249;-82
2023/09/15 07:03:39;;;;;;;20.80;5.60;;;;;;;25.95;40.89;101036.45;104305;1297;61417;-83
2023/09/15 07:06:05;;;;;;;15.80;5.80;;;;;;;25.96;41.01;101041.25;104460;1296;60057;-83
2023/09/15 07:08:31;;;;;;;14.90;5.80;;;;;;;25.96;41.13;101045.23;104524;1298;61299;-84
2023/09/15 07:10:56;;;;;;;24.40;6.20;;;;;;;25.97;40.87;101047.29;104345;1299;59161;-83
2023/09/15 07:13:22;;;;;;;21.50;6.10;;;;;;;25.99;41.11;101050.35;104514;1297;61455;-84
2023/09/15 07:15:49;;;;;;;12.30;5.80;;;;;;;26.03;41.14;101049.70;104195;1297;63724;-83
2023/09/15 07:18:15;;;;;;;16.70;5.90;;;;;;;26.08;41.09;101052.81;104311;1297;61412;-82
2023/09/15 07:20:40;;;;;;;14.40;6.30;;;;;;;26.11;41.18;101053.97;104119;1296;61322;-84
2023/09/15 07:23:06;;;;;;;14.80;6.10;;;;;;;26.17;41.51;101056.03;104230;1296;62573;-84
2023/09/15 07:25:32;;;;;;;12.60;6.20;;;;;;;26.17;41.36;101055.08;104212;1302;59387;-83
2023/09/15 07:27:57;;;;;;;13.90;6.60;;;;;;;26.18;41.37;101055.55;104086;1297;61319;-83
2023/09/15 07:30:23;;;;;;;10.80;5.90;;;;;;;26.19;41.53;101056.75;104112;1299;65880;-83
2023/09/15 07:32:49;;;;;;;15.00;6.20;;;;;;;26.14;41.51;101054.79;104039;1296;59358;-84
2023/09/15 07:35:14;;;;;;;12.40;6.20;;;;;;;26.14;41.53;101059.52;104151;1300;61385;-84
2023/09/15 07:37:41;;;;;;;12.90;5.90;;;;;;;26.19;41.52;101061.79;104336;1297;61341;-84
2023/09/15 07:40:07;;;;;;;13.10;6.30;;;;;;;26.24;41.17;101066.73;104056;1297;60319;-83
2023/09/15 07:42:33;;;;;;;15.40;7.00;;;;;;;26.28;41.29;101066.05;104419;1301;61439;-83
2023/09/15 07:44:59;;;;;;;14.50;6.60;;;;;;;26.31;41.29;101070.14;104019;1297;61255;-83
2023/09/15 07:47:25;;;;;;;21.80;7.50;;;;;;;26.29;41.20;101070.09;104121;1298;61382;-83
2023/09/15 07:49:55;;;;;;;16.10;6.80;;;;;;;26.26;41.13;101072.52;104134;1297;61415;-83
2023/09/15 07:52:24;;;;;;;17.30;7.30;;;;;;;26.24;41.26;101070.48;104185;1297;65913;-83
2023/09/15 07:54:52;;;;;;;16.20;7.50;;;;;;;26.25;41.16;101067.18;104266;1296;61396;-82
2023/09/15 07:57:18;;;;;;;17.00;7.00;;;;;;;26.26;41.13;101068.86;104402;1297;60237;-83
2023/09/15 07:59:44;;;;;;;19.60;7.50;;;;;;;26.26;41.21;101064.61;104192;1300;61338;-83
2023/09/15 08:02:09;;;;;;;13.30;7.40;;;;;;;26.26;41.07;101061.69;103898;1297;59329;-82
2023/09/15 08:04:35;;;;;;;14.90;7.10;;;;;;;26.25;41.18;101055.84;104088;1297;61332;-85
2023/09/15 08:07:02;;;;;;;16.40;7.30;;;;;;;26.26;41.25;101054.83;103867;1297;61405;-84
2023/09/15 08:09:29;;;;;;;17.20;7.80;;;;;;;26.28;41.48;101057.58;103895;1297;62271;-83
2023/09/15 08:11:59;;;;;;;16.90;7.00;;;;;;;26.32;41.47;101058.31;104177;1297;63662;-83
2023/09/15 08:14:26;;;;;;;14.30;7.50;;;;;;;26.36;41.42;101061.52;104158;1297;65964;-84
2023/09/15 08:16:52;;;;;;;16.50;7.70;;;;;;;26.37;41.38;101057.34;103797;1297;61318;-83
2023/09/15 08:19:18;;;;;;;18.80;7.80;;;;;;;26.38;41.22;101053.39;103702;1297;61427;-83
2023/09/15 08:21:44;;;;;;;18.80;7.80;;;;;;;26.41;41.28;101058.89;103764;1296;61288;-82
2023/09/15 08:24:09;;;;;;;11.40;7.20;;;;;;;26.45;41.31;101054.63;103427;1297;61405;-82
2023/09/15 08:26:35;;;;;;;16.70;7.30;;;;;;;26.45;41.18;101056.92;103889;1297;61364;-83
2023/09/15 08:29:00;;;;;;;16.10;7.70;;;;;;;26.45;41.14;101062.14;104032;1297;61421;-83
2023/09/15 08:31:28;;;;;;;12.40;7.60;;;;;;;26.43;40.99;101059.29;103743;1302;61408;-82
2023/09/15 08:33:54;;;;;;;18.10;7.60;;;;;;;26.44;41.02;101057.22;103844;1297;64823;-82
2023/09/15 08:36:20;;;;;;;14.00;7.70;;;;;;;26.48;41.06;101057.08;104148;1297;60685;-81
2023/09/15 08:38:45;;;;;;;10.30;7.30;;;;;;;26.51;40.81;101053.16;104333;1296;61269;-81
2023/09/15 08:41:19;;;;;;;13.30;7.80;;;;;;;26.55;40.88;101056.07;104155;1297;62091;-81
2023/09/15 08:43:45;;;;;;;13.50;8.20;;;;;;;26.56;41.05;101055.77;103972;1296;64109;-81
2023/09/15 08:46:10;;;;;;;11.80;7.50;;;;;;;26.57;41.12;101055.90;103915;1300;59326;-81
2023/09/15 08:48:41;;;;;;;14.30;7.60;;;;;;;26.56;41.08;101052.12;103713;1297;61337;-82
2023/09/15 08:51:06;;;;;;;14.90;7.30;;;;;;;26.56;41.03;101051.02;104317;1296;59879;-81
2023/09/15 08:53:32;;;;;;;26.70;8.90;;;;;;;26.59;40.84;101048.80;104512;1296;61313;-83
2023/09/15 08:55:58;;;;;;;18.20;8.00;;;;;;;26.64;41.17;101051.80;104371;1296;61232;-82
2023/09/15 08:58:24;;;;;;;16.10;8.00;;;;;;;26.66;41.15;101050.34;104329;1296;60004;-82
2023/09/15 09:00:50;;;;;;;18.70;8.80;;;;;;;26.68;41.29;101051.59;104344;1298;61214;-83
2023/09/15 09:03:16;;;;;;;24.80;8.70;;;;;;;26.69;41.34;101051.52;104644;1297;61394;-83
2023/09/15 09:05:46;;;;;;;13.30;7.90;;;;;;;26.70;41.47;101056.18;104510;1296;65915;-83
2023/09/15 09:08:12;;;;;;;19.40;8.20;;;;;;;26.67;41.14;101055.00;104858;1296;59056;-83
2023/09/15 09:10:39;;;;;;;13.40;7.90;;;;;;;26.63;41.17;101051.89;104633;1296;58999;-83
2023/09/15 09:13:05;;;;;;;13.60;7.90;;;;;;;26.62;41.24;101050.37;104483;1297;61383;-83
2023/09/15 09:15:32;;;;;;;13.10;7.80;;;;;;;26.61;41.10;101052.42;104519;1301;59559;-83
2023/09/15 09:17:57;;;;;;;19.30;9.10;;;;;;;26.62;41.31;101055.39;104465;1296;60315;-83
2023/09/15 09:20:26;;;;;;;15.90;8.50;;;;;;;26.57;41.27;101054.19;104435;1297;62194;-83
2023/09/15 09:22:52;;;;;;;;;;;;;;;26.58;41.20;101058.30;104075;1297;63895;-83
2023/09/15 09:25:33;;;;;;;18.60;8.10;;;;;;;26.59;41.28;101054.94;104010;1297;61478;-81
2023/09/15 09:28:00;;;;;;;16.90;8.50;;;;;;;26.65;41.16;101056.06;103689;1297;61182;-83
2023/09/15 09:30:31;;;;;;;19.80;8.80;;;;;;;26.67;41.13;101057.45;104450;1296;59377;-83
2023/09/15 09:32:57;;;;;;;20.20;8.70;;;;;;;26.69;41.12;101056.42;104115;1297;63839;-83
2023/09/15 09:35:23;;;;;;;13.50;8.50;;;;;;;26.70;41.39;101055.41;104451;1297;61412;-83
2023/09/15 09:37:49;;;;;;;17.40;8.50;;;;;;;26.69;41.36;101054.58;104471;1296;61501;-83
2023/09/15 09:40:16;;;;;;;18.80;8.50;;;;;;;26.66;41.08;101052.86;104517;1296;59391;-83
2023/09/15 09:42:42;;;;;;;13.60;8.70;;;;;;;26.65;41.08;101053.20;104369;1297;59416;-82
2023/09/15 09:45:08;;;;;;;20.60;8.70;;;;;;;26.65;41.25;101051.34;104115;1298;61457;-84
2023/09/15 09:47:35;;;;;;;14.90;8.70;;;;;;;26.68;41.23;101044.44;104005;1298;60036;-83
2023/09/15 09:50:09;;;;;;;12.40;7.80;;;;;;;26.70;41.07;101038.05;104533;1296;61323;-83
2023/09/15 09:52:36;;;;;;;14.20;8.40;;;;;;;26.72;41.30;101039.70;104387;1296;63514;-83
2023/09/15 09:55:04;;;;;;;14.60;9.00;;;;;;;26.73;40.98;101037.85;104313;1297;66314;-83
2023/09/15 09:57:30;;;;;;;15.80;8.90;;;;;;;26.71;40.90;101036.73;104484;1297;61145;-83
2023/09/15 09:59:56;;;;;;;15.30;8.70;;;;;;;26.68;41.20;101034.48;104562;1296;61248;-83
2023/09/15 10:02:22;;;;;;;18.30;8.60;;;;;;;26.66;41.10;101033.56;104538;1298;61323;-83
2023/09/15 10:04:48;;;;;;;15.70;8.50;;;;;;;26.63;40.85;101031.54;104681;1296;61435;-83
2023/09/15 10:07:13;;;;;;;11.80;8.50;;;;;;;26.60;41.13;101033.19;104525;1296;61294;-83
2023/09/15 10:09:39;;;;;;;16.00;8.10;;;;;;;26.58;41.10;101032.11;104517;1296;62996;-83
2023/09/15 10:12:05;;;;;;;16.90;8.50;;;;;;;26.57;41.17;101037.04;104602;1296;61415;-84
2023/09/15 10:14:32;;;;;;;16.10;8.00;;;;;;;26.58;41.09;101032.61;104396;1297;63653;-83
2023/09/15 10:16:58;;;;;;;17.80;8.10;;;;;;;26.64;41.26;101030.17;104465;1297;65911;-83
2023/09/15 10:19:24;;;;;;;13.30;8.60;;;;;;;26.67;41.23;101030.63;104821;1297;61385;-83
2023/09/15 10:21:49;;;;;;;14.60;8.10;;;;;;;26.71;41.09;101029.52;104460;1297;61316;-83
2023/09/15 10:24:15;;;;;;;12.70;8.80;;;;;;;26.74;41.11;101028.89;104293;1296;61347;-83
2023/09/15 10:26:44;;;;;;;14.40;8.10;;;;;;;26.74;41.18;101028.72;104223;1296;61397;-84
2023/09/15 10:29:13;;;;;;;15.00;8.30;;;;;;;26.73;41.00;101024.30;104563;1297;61279;-83
2023/09/15 10:31:43;;;;;;;15.30;8.60;;;;;;;26.75;41.02;101025.31;104230;1297;61345;-83
2023/09/15 10:34:09;;;;;;;14.30;8.30;;;;;;;26.80;41.10;101026.02;104392;1296;63826;-83
2023/09/15 10:36:35;;;;;;;16.50;7.90;;;;;;;26.83;40.93;101024.22;104365;1298;61736;-83
2023/09/15 10:39:17;;;;;;;17.00;8.20;;;;;;;26.87;40.99;101024.28;104388;1295;62264;-83
2023/09/15 10:41:43;;;;;;;16.40;8.40;;;;;;;26.89;41.10;101025.11;104184;1299;61192;-83
2023/09/15 10:44:08;;;;;;;13.50;8.60;;;;;;;26.92;40.90;101013.34;104374;1298;61248;-83
2023/09/15 10:46:42;;;;;;;13.60;8.20;;;;;;;26.95;40.98;101012.39;104015;1300;61374;-83
2023/09/15 10:49:21;;;;;;;16.90;8.40;;;;;;;26.96;40.67;101006.30;104483;1295;61376;-84
2023/09/15 10:51:56;;;;;;;;;;;;;;;26.98;40.66;101010.69;104476;1297;61317;-83
2023/09/15 10:54:30;;;;;;;11.50;7.70;;;;;;;26.97;40.74;101010.04;104018;1300;64036;-83
2023/09/15 10:56:57;;;;;;;11.80;8.00;;;;;;;26.98;40.71;101009.03;104201;1295;65598;-83
2023/09/15 10:59:25;;;;;;;15.70;8.30;;;;;;;26.96;40.66;101007.02;104672;1297;60390;-83
2023/09/15 11:01:53;;;;;;;18.20;9.00;;;;;;;26.93;40.95;101003.50;104979;1296;58822;-85
2023/09/15 11:04:21;;;;;;;20.70;9.00;;;;;;;26.92;41.00;101003.21;105217;1300;61309;-83
2023/09/15 11:06:48;;;;;;;14.10;7.70;;;;;;;26.92;40.80;101001.55;105126;1297;66067;-85
2023/09/15 11:09:16;;;;;;;;;;;;;;;26.92;40.94;101001.55;104681;1296;61244;-84